Time;durP1;ratioP1;P1;durP2;ratioP2;P2;SDS_P1;SDS_P2;PMS_P1;PMS_P2;Temp;Humidity;BMP_temperature;BMP_pressure;BME280_temperature;BME280_humidity;BME280_pressure;Samples;Min_cycle;Max_cycle;Signal;HPM_P1;HPM_P2
2022/04/08 00:00:15;;;;;;;4.17;1.10;;;;;;;9.47;82.26;96330.76;2242834;79;20997;-61
2022/04/08 00:03:18;;;;;;;7.15;1.35;;;;;;;9.43;82.48;96333.33;2214689;79;21524;-60
2022/04/08 00:06:20;;;;;;;4.00;1.20;;;;;;;9.39;82.22;96328.86;2238672;79;21024;-61
2022/04/08 00:09:22;;;;;;;4.85;1.45;;;;;;;9.57;80.70;96319.73;2241282;79;21586;-61
2022/04/08 00:12:23;;;;;;;6.97;1.47;;;;;;;9.61;80.01;96314.55;2234983;79;20962;-61
2022/04/08 00:15:25;;;;;;;7.60;1.45;;;;;;;9.65;79.48;96328.14;2233292;79;21550;-61
2022/04/08 00:18:26;;;;;;;4.70;1.25;;;;;;;9.67;78.44;96340.11;2241114;79;21000;-61
2022/04/08 00:21:28;;;;;;;8.43;1.72;;;;;;;9.64;79.38;96348.73;2235728;79;21012;-60
2022/04/08 00:24:30;;;;;;;6.45;1.22;;;;;;;9.66;79.22;96365.94;2245922;79;21100;-61
2022/04/08 00:27:32;;;;;;;4.87;0.90;;;;;;;9.67;79.33;96365.48;2244925;79;21540;-61
2022/04/08 00:30:33;;;;;;;7.17;1.17;;;;;;;9.53;79.89;96373.34;2237607;79;21024;-60
2022/04/08 00:33:35;;;;;;;5.00;1.45;;;;;;;9.56;79.20;96381.38;2237426;79;21004;-60
2022/04/08 00:36:36;;;;;;;5.83;1.20;;;;;;;9.52;79.23;96384.77;2241562;79;21012;-61
2022/04/08 00:39:37;;;;;;;5.50;1.62;;;;;;;9.51;79.40;96382.64;2239660;78;20993;-60
2022/04/08 00:42:40;;;;;;;8.00;1.40;;;;;;;9.52;79.76;96392.61;2240739;79;21060;-61
2022/04/08 00:45:42;;;;;;;5.55;1.12;;;;;;;9.57;79.36;96393.48;2224621;79;21594;-60
2022/04/08 00:48:44;;;;;;;6.60;2.10;;;;;;;9.56;79.07;96384.00;2238213;79;21064;-61
2022/04/08 00:51:45;;;;;;;6.42;1.55;;;;;;;9.54;78.65;96377.61;2243129;79;21546;-60
2022/04/08 00:54:47;;;;;;;4.87;1.57;;;;;;;9.47;78.38;96372.13;2226650;79;20976;-60
2022/04/08 00:57:48;;;;;;;6.47;1.42;;;;;;;9.51;77.84;96375.26;2235001;79;20965;-61
2022/04/08 01:00:50;;;;;;;7.33;1.70;;;;;;;9.38;78.84;96371.71;2239395;79;21102;-61
2022/04/08 01:03:52;;;;;;;5.78;1.50;;;;;;;9.39;78.48;96377.26;2233253;79;21103;-60
2022/04/08 01:06:53;;;;;;;7.37;2.00;;;;;;;9.25;79.37;96395.59;2234889;78;20966;-60
2022/04/08 01:09:55;;;;;;;13.77;2.27;;;;;;;9.27;79.72;96409.34;2234564;79;21047;-60
2022/04/08 01:12:56;;;;;;;4.67;1.40;;;;;;;9.22;80.15;96394.55;2231432;79;20996;-61
2022/04/08 01:15:58;;;;;;;9.03;1.98;;;;;;;8.69;84.10;96397.27;2240712;78;21122;-60
2022/04/08 01:19:00;;;;;;;9.00;2.17;;;;;;;8.70;84.16;96405.95;2237147;79;21614;-60
2022/04/08 01:22:01;;;;;;;9.03;2.05;;;;;;;8.62;84.95;96411.39;2240283;79;21029;-61
2022/04/08 01:25:02;;;;;;;8.70;2.30;;;;;;;8.53;84.91;96411.41;2241756;79;21005;-61
2022/04/08 01:28:04;;;;;;;7.67;2.02;;;;;;;8.66;84.78;96425.83;2243519;78;21044;-60
2022/04/08 01:31:05;;;;;;;10.43;1.92;;;;;;;8.52;84.15;96424.96;2275504;78;21048;-60
2022/04/08 01:34:07;;;;;;;7.70;2.10;;;;;;;8.54;84.17;96437.88;2241609;79;21434;-60
2022/04/08 01:37:09;;;;;;;8.25;1.90;;;;;;;8.56;84.40;96452.47;2225744;79;21068;-61
2022/04/08 01:40:10;;;;;;;3.62;1.25;;;;;;;8.44;84.64;96451.76;2222385;79;21528;-60
2022/04/08 01:43:12;;;;;;;6.13;1.83;;;;;;;8.53;83.29;96461.86;2251560;79;21060;-60
2022/04/08 01:46:13;;;;;;;5.05;1.70;;;;;;;8.53;83.18;96464.97;2226756;78;21542;-60
2022/04/08 01:49:15;;;;;;;11.40;1.98;;;;;;;8.62;82.05;96471.95;2229660;79;21068;-61
2022/04/08 01:52:16;;;;;;;7.07;1.60;;;;;;;8.67;81.29;96463.23;2239337;78;21131;-61
2022/04/08 01:55:18;;;;;;;7.05;1.57;;;;;;;8.60;81.00;96459.03;2250681;79;21119;-61
2022/04/08 01:58:20;;;;;;;7.15;2.37;;;;;;;8.57;81.07;96460.62;2236488;78;21122;-60
2022/04/08 02:01:21;;;;;;;8.38;1.65;;;;;;;8.56;80.80;96471.22;2239058;79;21052;-61
2022/04/08 02:04:22;;;;;;;5.90;1.75;;;;;;;8.58;80.62;96481.88;2238838;79;21055;-61
2022/04/08 02:07:24;;;;;;;9.78;2.20;;;;;;;8.65;80.71;96485.59;2237893;79;21036;-61
2022/04/08 02:10:26;;;;;;;9.50;2.15;;;;;;;8.74;80.57;96480.50;2226333;79;21084;-60
2022/04/08 02:13:28;;;;;;;8.45;2.15;;;;;;;8.76;80.26;96479.86;2230925;79;21104;-60
2022/04/08 02:16:29;;;;;;;7.47;1.90;;;;;;;8.79;79.83;96462.13;2237577;79;20984;-61
2022/04/08 02:19:31;;;;;;;7.92;1.65;;;;;;;8.73;79.57;96460.05;2223657;79;21075;-61
2022/04/08 02:22:34;;;;;;;10.55;2.00;;;;;;;8.80;78.82;96478.13;2232240;78;21051;-61
2022/04/08 02:25:35;;;;;;;13.05;2.30;;;;;;;8.69;79.20;96471.75;2241239;78;21031;-61
2022/04/08 02:28:36;;;;;;;9.15;2.22;;;;;;;8.72;78.94;96470.19;2248406;79;21457;-60
2022/04/08 02:31:38;;;;;;;10.08;2.25;;;;;;;8.66;79.38;96465.03;2226208;79;20980;-60
2022/04/08 02:34:39;;;;;;;8.07;1.63;;;;;;;8.70;79.64;96466.88;2237822;79;21004;-60
2022/04/08 02:37:41;;;;;;;9.43;2.30;;;;;;;8.79;79.75;96467.36;2244414;79;20976;-60
2022/04/08 02:40:42;;;;;;;8.70;1.80;;;;;;;8.83;79.99;96483.11;2242510;78;21085;-60
2022/04/08 02:43:44;;;;;;;1.52;0.78;;;;;;;8.65;82.81;96602.37;2232888;79;21043;-62
2022/04/08 02:46:45;;;;;;;3.83;1.05;;;;;;;6.76;100.00;96681.16;2219983;79;20995;-62
2022/04/08 02:49:47;;;;;;;6.87;1.35;;;;;;;5.61;100.00;96655.25;2244690;79;21588;-61
2022/04/08 02:52:48;;;;;;;7.22;1.60;;;;;;;5.36;100.00;96686.99;2235742;79;20962;-61
2022/04/08 02:55:50;;;;;;;5.20;1.12;;;;;;;5.24;100.00;96654.09;2230237;78;21500;-61
2022/04/08 02:58:52;;;;;;;9.33;1.70;;;;;;;5.15;100.00;96649.11;2226955;79;21091;-61
2022/04/08 03:01:53;;;;;;;13.08;2.05;;;;;;;5.30;100.00;96613.82;2229418;78;21502;-61
2022/04/08 03:04:55;;;;;;;5.65;1.60;;;;;;;5.26;100.00;96609.79;2230463;79;20968;-61
2022/04/08 03:07:57;;;;;;;11.03;2.22;;;;;;;5.30;100.00;96597.77;2227923;79;21479;-61
2022/04/08 03:10:58;;;;;;;9.45;1.80;;;;;;;5.33;100.00;96596.69;2237359;79;21027;-61
2022/04/08 03:14:02;;;;;;;12.05;1.67;;;;;;;5.37;100.00;96582.52;2223160;79;21030;-61
2022/04/08 03:17:03;;;;;;;10.30;1.82;;;;;;;5.46;100.00;96586.19;2234516;79;21040;-61
2022/04/08 03:20:04;;;;;;;12.40;2.20;;;;;;;5.46;100.00;96561.04;2233246;79;21033;-61
2022/04/08 03:23:06;;;;;;;7.15;1.65;;;;;;;5.54;100.00;96566.46;2238024;78;21041;-61
2022/04/08 03:26:07;;;;;;;5.75;1.40;;;;;;;5.70;100.00;96563.98;2233452;79;20993;-60
2022/04/08 03:29:09;;;;;;;9.43;1.72;;;;;;;5.61;100.00;96577.23;2233694;79;21099;-61
2022/04/08 03:32:10;;;;;;;10.23;1.55;;;;;;;5.59;100.00;96578.28;2236718;79;21551;-60
2022/04/08 03:35:13;;;;;;;6.05;1.67;;;;;;;5.62;100.00;96579.37;2226546;79;21027;-60
2022/04/08 03:38:14;;;;;;;13.88;3.25;;;;;;;5.60;100.00;96582.06;2235732;79;21019;-60
2022/04/08 03:41:16;;;;;;;10.68;2.10;;;;;;;5.66;100.00;96581.63;2235970;79;20980;-61
2022/04/08 03:44:17;;;;;;;24.95;5.37;;;;;;;5.71;100.00;96594.27;2222268;78;21475;-62
2022/04/08 03:47:20;;;;;;;18.82;3.85;;;;;;;5.77;100.00;96600.77;2227560;79;21011;-61
2022/04/08 03:50:23;;;;;;;26.33;7.22;;;;;;;5.81;100.00;96601.70;2211622;79;21042;-61
2022/04/08 03:53:24;;;;;;;20.73;5.10;;;;;;;5.84;100.00;96607.97;2221856;79;21485;-61
2022/04/08 03:56:26;;;;;;;16.82;3.92;;;;;;;5.84;100.00;96622.77;2246121;79;21262;-61
2022/04/08 03:59:27;;;;;;;21.48;4.20;;;;;;;5.94;100.00;96621.59;2243614;79;21051;-61
2022/04/08 04:02:29;;;;;;;22.77;6.00;;;;;;;6.01;100.00;96630.13;2247766;79;21048;-61
2022/04/08 04:05:30;;;;;;;19.05;4.53;;;;;;;6.03;100.00;96629.55;2233945;79;20961;-60
2022/04/08 04:08:32;;;;;;;14.93;3.35;;;;;;;5.97;100.00;96626.55;2237670;78;20965;-61
2022/04/08 04:11:33;;;;;;;15.43;2.77;;;;;;;6.05;100.00;96625.52;2231311;79;21023;-61
2022/04/08 04:14:35;;;;;;;12.50;2.80;;;;;;;6.03;100.00;96625.64;2243101;79;21085;-61
2022/04/08 04:17:36;;;;;;;11.43;2.50;;;;;;;6.07;100.00;96621.02;2241470;79;20976;-60
2022/04/08 04:20:38;;;;;;;18.25;2.98;;;;;;;6.10;100.00;96629.88;2224521;79;21570;-61
2022/04/08 04:23:39;;;;;;;16.17;2.95;;;;;;;6.11;100.00;96630.24;2245078;79;21009;-61
2022/04/08 04:26:40;;;;;;;17.90;5.15;;;;;;;6.17;100.00;96635.45;2235435;79;20953;-61
2022/04/08 04:29:42;;;;;;;17.20;4.07;;;;;;;6.24;100.00;96635.32;2226786;79;21071;-61
2022/04/08 04:32:43;;;;;;;20.48;4.80;;;;;;;6.34;100.00;96634.95;2223154;79;21035;-60
2022/04/08 04:35:45;;;;;;;15.32;3.72;;;;;;;6.29;100.00;96645.37;2237146;79;21060;-60
2022/04/08 04:38:46;;;;;;;15.85;3.50;;;;;;;6.37;100.00;96646.42;2221703;79;21086;-61
2022/04/08 04:41:48;;;;;;;12.25;2.40;;;;;;;6.34;100.00;96642.76;2216953;79;21004;-61
2022/04/08 04:44:50;;;;;;;13.22;2.67;;;;;;;6.45;100.00;96643.69;2246609;78;21479;-60
2022/04/08 04:47:51;;;;;;;16.85;3.22;;;;;;;6.46;100.00;96648.77;2243900;78;20983;-61
2022/04/08 04:50:54;;;;;;;15.93;3.45;;;;;;;6.51;100.00;96650.55;2237544;79;21044;-61
2022/04/08 04:53:56;;;;;;;15.98;3.35;;;;;;;6.67;100.00;96648.03;2233797;78;20987;-61
2022/04/08 04:56:57;;;;;;;16.10;3.12;;;;;;;6.56;100.00;96666.62;2275553;78;21537;-61
2022/04/08 04:59:59;;;;;;;15.13;2.95;;;;;;;6.61;100.00;96683.67;2244863;79;20953;-61
2022/04/08 05:03:01;;;;;;;11.45;2.90;;;;;;;6.66;100.00;96670.63;2233587;79;21531;-61
2022/04/08 05:06:03;;;;;;;14.60;2.60;;;;;;;6.70;100.00;96681.66;2249409;79;21586;-61
2022/04/08 05:09:05;;;;;;;12.78;2.77;;;;;;;6.78;100.00;96674.52;2241201;79;21073;-60
2022/04/08 05:12:07;;;;;;;11.00;2.30;;;;;;;6.82;100.00;96678.05;2244484;79;21565;-60
2022/04/08 05:15:11;;;;;;;17.45;3.12;;;;;;;6.84;100.00;96673.56;2239296;79;20973;-60
2022/04/08 05:18:12;;;;;;;13.22;2.77;;;;;;;6.96;100.00;96677.45;2208151;79;20988;-61
2022/04/08 05:21:14;;;;;;;16.07;3.25;;;;;;;7.08;100.00;96685.56;2235453;79;21457;-61
2022/04/08 05:24:15;;;;;;;18.95;3.40;;;;;;;7.22;100.00;96687.05;2238218;79;21019;-61
2022/04/08 05:27:17;;;;;;;15.10;2.98;;;;;;;7.58;100.00;96692.32;2242406;79;21488;-61
2022/04/08 05:30:18;;;;;;;15.53;3.30;;;;;;;7.84;100.00;96697.16;2241829;79;21064;-61
2022/04/08 05:33:20;;;;;;;21.12;4.50;;;;;;;8.16;100.00;96708.00;2236446;79;21013;-61
2022/04/08 05:36:21;;;;;;;14.75;2.70;;;;;;;8.27;100.00;96705.77;2244321;78;21129;-61
2022/04/08 05:39:23;;;;;;;14.20;2.65;;;;;;;8.22;100.00;96727.55;2283653;77;21012;-61
2022/04/08 05:42:24;;;;;;;17.45;2.80;;;;;;;8.25;100.00;96714.22;2246415;79;21015;-61
2022/04/08 05:45:25;;;;;;;12.58;2.67;;;;;;;8.31;100.00;96710.58;2242481;79;20992;-61
2022/04/08 05:48:27;;;;;;;14.93;2.95;;;;;;;8.17;100.00;96727.91;2244831;79;21506;-61
2022/04/08 05:51:28;;;;;;;11.85;2.50;;;;;;;8.17;100.00;96721.87;2227119;79;21163;-61
2022/04/08 05:54:30;;;;;;;15.08;2.45;;;;;;;8.23;100.00;96710.89;2235809;79;21003;-61
2022/04/08 05:57:31;;;;;;;16.82;2.92;;;;;;;8.54;100.00;96714.35;2241713;79;21067;-61
2022/04/08 06:00:35;;;;;;;17.35;2.83;;;;;;;8.78;100.00;96717.13;2233603;79;20996;-61
2022/04/08 06:03:36;;;;;;;14.73;2.85;;;;;;;9.06;100.00;96745.58;2213548;79;21055;-61
2022/04/08 06:06:38;;;;;;;14.13;3.17;;;;;;;9.31;100.00;96707.62;2229317;79;21000;-61
2022/04/08 06:09:40;;;;;;;;;;;;;;;9.52;100.00;96739.36;2232725;79;21491;-61
2022/04/08 06:12:41;;;;;;;11.33;2.40;;;;;;;9.66;100.00;96732.88;2237573;79;20098;-61
2022/04/08 06:15:43;;;;;;;13.60;2.35;;;;;;;9.97;100.00;96736.62;2237945;79;21495;-61
2022/04/08 06:18:45;;;;;;;13.83;2.22;;;;;;;10.05;100.00;96751.97;2241115;79;20997;-61
2022/04/08 06:21:46;;;;;;;9.25;1.62;;;;;;;9.86;100.00;96763.80;2230925;79;21461;-61
2022/04/08 06:24:47;;;;;;;12.20;2.55;;;;;;;10.10;100.00;96716.67;2249358;78;20985;-60
2022/04/08 06:27:49;;;;;;;16.65;2.80;;;;;;;10.24;100.00;96769.92;2234329;79;20969;-61
2022/04/08 06:30:51;;;;;;;11.53;2.17;;;;;;;10.39;100.00;96758.06;2247708;79;21634;-60
2022/04/08 06:33:52;;;;;;;11.53;2.55;;;;;;;10.11;100.00;96741.41;2238633;79;20952;-60
2022/04/08 06:36:54;;;;;;;9.97;1.80;;;;;;;10.35;100.00;96768.48;2228640;79;21550;-61
2022/04/08 06:39:56;;;;;;;10.47;2.17;;;;;;;10.56;100.00;96774.02;2242180;79;21203;-61
2022/04/08 06:42:59;;;;;;;11.55;2.45;;;;;;;10.45;100.00;96799.09;2234024;78;21710;-61
2022/04/08 06:46:00;;;;;;;8.88;1.72;;;;;;;10.50;99.87;96813.42;2244567;79;21059;-61
2022/04/08 06:49:02;;;;;;;11.65;1.90;;;;;;;10.33;100.00;96793.14;2239628;79;21529;-61
2022/04/08 06:52:04;;;;;;;10.35;2.15;;;;;;;10.20;96.95;96786.42;2223015;79;21059;-61
2022/04/08 06:55:05;;;;;;;11.50;1.80;;;;;;;10.27;98.80;96812.90;2237719;79;21598;-61
2022/04/08 06:58:07;;;;;;;12.53;2.30;;;;;;;10.23;97.16;96786.63;2234748;79;20976;-60
2022/04/08 07:01:08;;;;;;;11.78;2.40;;;;;;;10.19;93.55;96809.66;2236295;79;21027;-60
2022/04/08 07:04:10;;;;;;;13.85;2.58;;;;;;;10.36;93.70;96820.42;2234617;79;20958;-61
2022/04/08 07:07:12;;;;;;;12.25;2.37;;;;;;;10.21;92.55;96870.62;2230598;79;21012;-61
2022/04/08 07:10:13;;;;;;;12.95;2.72;;;;;;;10.32;94.67;96851.28;2244447;79;21475;-60
2022/04/08 07:13:15;;;;;;;14.50;2.10;;;;;;;10.31;92.77;96854.05;2241152;79;21078;-61
2022/04/08 07:16:16;;;;;;;10.40;1.90;;;;;;;10.17;92.14;96848.74;2236386;79;21017;-60
2022/04/08 07:19:18;;;;;;;9.93;1.98;;;;;;;10.18;90.46;96873.98;2238883;79;21566;-61
2022/04/08 07:22:19;;;;;;;7.62;2.20;;;;;;;10.28;88.51;96847.78;2236733;79;21015;-61
2022/04/08 07:25:21;;;;;;;12.90;1.92;;;;;;;10.29;93.02;96866.47;2245399;79;21031;-61
2022/04/08 07:28:22;;;;;;;11.88;2.17;;;;;;;10.42;92.02;96882.75;2242558;79;21040;-60
2022/04/08 07:31:24;;;;;;;11.25;2.33;;;;;;;10.54;89.72;96878.17;2240492;79;21008;-61
2022/04/08 07:34:25;;;;;;;9.18;2.05;;;;;;;10.64;89.04;96892.58;2227953;79;21526;-60
2022/04/08 07:37:27;;;;;;;10.85;1.90;;;;;;;10.55;85.97;96898.19;2244377;79;20988;-61
2022/04/08 07:40:29;;;;;;;9.83;2.05;;;;;;;10.60;88.67;96917.42;2227976;79;21451;-61
2022/04/08 07:43:30;;;;;;;8.43;2.00;;;;;;;10.74;84.63;96889.45;2235920;79;21000;-61
2022/04/08 07:46:31;;;;;;;8.48;1.85;;;;;;;10.84;85.49;96911.22;2233880;79;21490;-61
2022/04/08 07:49:33;;;;;;;11.33;2.52;;;;;;;11.09;83.21;96891.87;2244985;79;21015;-61
2022/04/08 07:52:35;;;;;;;11.63;2.20;;;;;;;11.37;82.26;96914.23;2238639;79;21554;-60
2022/04/08 07:55:36;;;;;;;13.13;2.27;;;;;;;11.50;82.27;96905.52;2243591;79;20957;-61
2022/04/08 07:58:38;;;;;;;14.75;2.80;;;;;;;11.66;78.63;96927.69;2240201;79;20996;-61
2022/04/08 08:01:39;;;;;;;12.60;2.40;;;;;;;11.94;78.78;96895.69;2226581;79;20992;-61
2022/04/08 08:04:40;;;;;;;13.70;2.65;;;;;;;12.42;78.10;96920.74;2239921;79;21036;-61
2022/04/08 08:07:42;;;;;;;15.88;2.90;;;;;;;12.42;72.64;96926.50;2239281;79;20997;-61
2022/04/08 08:10:43;;;;;;;12.88;2.85;;;;;;;12.40;70.14;96914.83;2241409;79;20992;-60
2022/04/08 08:13:45;;;;;;;12.40;2.65;;;;;;;12.10;69.04;96943.13;2237719;79;21486;-61
2022/04/08 08:16:46;;;;;;;6.27;1.57;;;;;;;12.08;67.27;96952.13;2236279;79;20991;-60
2022/04/08 08:19:48;;;;;;;8.47;1.60;;;;;;;11.76;66.41;96978.36;2243263;79;20992;-60
2022/04/08 08:22:49;;;;;;;11.53;2.47;;;;;;;11.25;67.10;96964.27;2244268;79;21512;-60
2022/04/08 08:25:51;;;;;;;12.90;1.85;;;;;;;11.12;66.75;96957.67;2236888;79;21020;-60
2022/04/08 08:28:53;;;;;;;7.65;2.22;;;;;;;11.15;66.62;96965.26;2233873;79;20987;-60
2022/04/08 08:31:54;;;;;;;8.85;1.72;;;;;;;10.97;67.58;96971.25;2240996;79;21012;-61
2022/04/08 08:34:56;;;;;;;11.00;1.75;;;;;;;10.86;67.81;96971.40;2234746;79;21044;-62
2022/04/08 08:37:57;;;;;;;13.53;2.00;;;;;;;11.10;67.20;96972.25;2243344;79;20965;-61
2022/04/08 08:40:59;;;;;;;15.78;2.35;;;;;;;11.05;66.09;96980.55;2233291;79;21087;-61
2022/04/08 08:44:00;;;;;;;13.40;2.62;;;;;;;11.10;67.29;96961.76;2237009;78;21591;-61
2022/04/08 08:47:02;;;;;;;12.45;1.80;;;;;;;11.34;69.94;96976.20;2244126;79;21123;-61
2022/04/08 08:50:03;;;;;;;12.43;2.15;;;;;;;11.20;65.49;97008.97;2241059;79;21039;-61
2022/04/08 08:53:04;;;;;;;7.33;1.32;;;;;;;11.32;65.52;97003.91;2243691;79;21000;-60
2022/04/08 08:56:06;;;;;;;7.92;1.70;;;;;;;11.34;62.71;97010.33;2229494;79;20965;-61
2022/04/08 08:59:07;;;;;;;8.28;1.37;;;;;;;11.16;63.25;96998.41;2240690;79;21452;-61
2022/04/08 09:02:09;;;;;;;14.97;2.73;;;;;;;11.08;64.10;96998.63;2230526;79;20969;-61
2022/04/08 09:05:11;;;;;;;8.50;1.75;;;;;;;11.34;66.30;96999.83;2224089;79;21723;-61
2022/04/08 09:08:13;;;;;;;8.25;1.55;;;;;;;11.29;63.06;97016.47;2238435;79;20985;-61
2022/04/08 09:11:15;;;;;;;7.78;1.60;;;;;;;11.38;63.61;97013.83;2241457;79;20992;-61
2022/04/08 09:14:16;;;;;;;11.20;2.00;;;;;;;11.60;65.91;97022.32;2241282;79;20973;-61
2022/04/08 09:17:18;;;;;;;9.45;1.72;;;;;;;11.90;65.12;97005.95;2237447;79;21534;-61
2022/04/08 09:20:20;;;;;;;9.25;1.90;;;;;;;11.93;65.44;97021.42;2242256;79;20985;-61
2022/04/08 09:23:21;;;;;;;8.77;1.67;;;;;;;11.97;64.28;97018.88;2276054;77;21488;-60
2022/04/08 09:26:23;;;;;;;10.30;2.10;;;;;;;11.90;62.26;97034.35;2284296;77;21021;-60
2022/04/08 09:29:24;;;;;;;13.23;2.43;;;;;;;11.82;63.85;97021.11;2284246;77;21538;-60
2022/04/08 09:32:26;;;;;;;6.55;1.77;;;;;;;11.88;62.93;97038.09;2282272;77;20969;-60
2022/04/08 09:35:27;;;;;;;9.93;2.10;;;;;;;11.85;64.28;97028.72;2244055;78;21495;-61
2022/04/08 09:38:30;;;;;;;10.43;2.40;;;;;;;12.03;62.91;97037.98;2238346;79;20989;-61
2022/04/08 09:41:32;;;;;;;9.70;1.77;;;;;;;11.99;62.48;97025.29;2243642;79;21008;-60
2022/04/08 09:44:36;;;;;;;11.15;2.15;;;;;;;11.76;61.35;96996.25;2238763;79;21060;-61
2022/04/08 09:47:37;;;;;;;13.58;2.58;;;;;;;11.46;60.97;97009.66;2206756;79;21021;-60
2022/04/08 09:50:40;;;;;;;13.55;2.08;;;;;;;11.40;62.03;97012.38;2243961;79;21032;-60
2022/04/08 09:53:42;;;;;;;13.00;2.40;;;;;;;11.29;61.29;97050.59;2239299;79;21491;-61
2022/04/08 09:56:44;;;;;;;11.20;2.10;;;;;;;11.12;62.10;97042.95;2238166;79;20992;-61
2022/04/08 09:59:45;;;;;;;11.48;1.75;;;;;;;10.89;62.60;97041.47;2238497;79;20958;-61
2022/04/08 10:02:47;;;;;;;20.02;3.58;;;;;;;10.99;62.81;97057.20;2279773;77;20977;-61
2022/04/08 10:05:48;;;;;;;12.68;2.37;;;;;;;11.22;63.56;97031.48;2270952;77;20985;-61
2022/04/08 10:08:50;;;;;;;12.13;2.30;;;;;;;11.73;62.19;97051.70;2271857;77;21576;-60
2022/04/08 10:11:51;;;;;;;12.03;2.40;;;;;;;11.87;62.03;97042.53;2285982;77;21039;-60
2022/04/08 10:14:53;;;;;;;9.28;1.60;;;;;;;11.78;59.68;97041.59;2276838;77;21456;-60
2022/04/08 10:17:54;;;;;;;8.75;2.10;;;;;;;11.60;59.52;97052.02;2281596;77;20986;-60
2022/04/08 10:20:56;;;;;;;6.85;1.45;;;;;;;11.52;61.04;97061.58;2283172;77;20965;-60
2022/04/08 10:23:57;;;;;;;6.97;1.75;;;;;;;11.33;62.03;97064.59;2284368;77;20977;-60
2022/04/08 10:27:01;;;;;;;9.28;2.15;;;;;;;11.71;66.30;97051.03;2284564;77;21016;-61
2022/04/08 10:30:03;;;;;;;7.47;1.95;;;;;;;11.62;63.99;97044.00;2251946;77;21005;-60
2022/04/08 10:33:04;;;;;;;8.60;1.73;;;;;;;11.37;63.89;97055.47;2282099;77;21554;-61
2022/04/08 10:36:07;;;;;;;10.50;2.10;;;;;;;11.50;63.67;97059.60;2283703;77;21472;-61
2022/04/08 10:39:09;;;;;;;9.63;1.87;;;;;;;11.85;59.97;97093.55;2285586;77;21029;-61
2022/04/08 10:42:11;;;;;;;9.50;1.67;;;;;;;11.82;60.16;97059.69;2239495;79;21024;-61
2022/04/08 10:45:12;;;;;;;9.33;1.32;;;;;;;11.91;57.15;97110.04;2226076;79;20989;-61
2022/04/08 10:48:14;;;;;;;4.40;1.43;;;;;;;12.74;54.07;97072.41;2239062;79;21008;-60
2022/04/08 10:51:15;;;;;;;7.55;1.62;;;;;;;13.15;55.77;97074.91;2244001;78;21056;-61
2022/04/08 10:54:17;;;;;;;17.45;3.22;;;;;;;12.95;49.61;97095.30;2242625;78;20999;-61
2022/04/08 10:57:19;;;;;;;12.73;2.85;;;;;;;12.56;50.48;97077.67;2245456;78;21079;-60
2022/04/08 11:00:20;;;;;;;12.87;2.60;;;;;;;12.64;48.67;97104.87;2252227;79;21539;-61
2022/04/08 11:03:22;;;;;;;13.63;2.50;;;;;;;12.48;52.61;97073.13;2229658;79;21092;-60
2022/04/08 11:06:24;;;;;;;9.83;2.13;;;;;;;12.98;52.35;97048.94;2219769;78;21550;-61
2022/04/08 11:09:26;;;;;;;9.75;2.15;;;;;;;12.68;51.04;97059.36;2227625;79;20984;-60
2022/04/08 11:12:30;;;;;;;13.28;2.95;;;;;;;11.69;51.88;97083.16;2240609;79;21523;-61
2022/04/08 11:15:31;;;;;;;16.07;2.83;;;;;;;11.44;53.46;97091.19;2223169;79;20996;-60
2022/04/08 11:18:32;;;;;;;17.00;2.70;;;;;;;11.16;52.33;97096.81;2222483;79;21057;-60
2022/04/08 11:21:34;;;;;;;13.53;2.72;;;;;;;11.41;52.73;97064.72;2236819;79;21543;-60
2022/04/08 11:24:36;;;;;;;8.53;1.65;;;;;;;11.71;53.92;97091.73;2235466;79;21048;-61
2022/04/08 11:27:38;;;;;;;11.78;2.10;;;;;;;11.35;51.99;97067.92;2229756;79;20989;-61
2022/04/08 11:30:39;;;;;;;10.70;2.02;;;;;;;11.11;52.17;97123.47;2212135;79;21073;-61
2022/04/08 11:33:41;;;;;;;13.25;2.98;;;;;;;11.04;52.17;97114.50;2233176;78;21622;-60
2022/04/08 11:36:42;;;;;;;13.95;2.45;;;;;;;11.10;55.25;97121.81;2227126;79;21072;-61
2022/04/08 11:39:45;;;;;;;17.10;3.02;;;;;;;11.92;55.69;97109.92;2241282;79;21718;-61
2022/04/08 11:42:46;;;;;;;12.25;2.50;;;;;;;11.89;52.39;97117.25;2237659;79;21023;-61
2022/04/08 11:45:48;;;;;;;11.03;2.67;;;;;;;11.78;52.30;97111.20;2243836;79;21506;-60
2022/04/08 11:48:49;;;;;;;18.00;3.83;;;;;;;11.81;53.38;97091.71;2241367;79;21013;-61
2022/04/08 11:51:51;;;;;;;14.30;2.83;;;;;;;11.81;53.87;97116.66;2220725;79;21036;-60
2022/04/08 11:54:52;;;;;;;12.50;2.77;;;;;;;11.71;52.87;97118.00;2245992;78;20996;-61
2022/04/08 11:57:53;;;;;;;14.87;2.90;;;;;;;12.03;52.93;97087.09;2233128;79;21338;-60
2022/04/08 12:00:55;;;;;;;9.53;2.63;;;;;;;12.23;51.50;97083.88;2224277;79;21617;-60
2022/04/08 12:03:56;;;;;;;8.47;1.80;;;;;;;12.34;48.95;97116.55;2239262;79;20993;-61
2022/04/08 12:06:59;;;;;;;13.35;2.83;;;;;;;12.90;50.86;97057.25;2244911;79;21071;-61
2022/04/08 12:10:01;;;;;;;14.25;2.20;;;;;;;13.54;50.86;97084.77;2237437;79;21067;-61
2022/04/08 12:13:02;;;;;;;10.72;2.17;;;;;;;12.91;48.51;97106.28;2241508;79;21428;-61
2022/04/08 12:16:04;;;;;;;7.20;1.40;;;;;;;12.33;48.03;97124.59;2242142;79;20996;-60
2022/04/08 12:19:05;;;;;;;8.37;1.77;;;;;;;11.89;49.28;97144.34;2240927;79;21504;-62
2022/04/08 12:22:07;;;;;;;12.50;1.90;;;;;;;11.32;51.71;97156.14;2237649;79;20979;-61
2022/04/08 12:25:08;;;;;;;10.50;2.27;;;;;;;10.35;64.47;97148.96;2236768;78;20997;-61
2022/04/08 12:28:09;;;;;;;7.17;2.03;;;;;;;9.75;61.82;97141.77;2243394;79;20968;-60
2022/04/08 12:31:12;;;;;;;10.82;2.12;;;;;;;10.33;66.30;97134.66;2232421;79;21048;-60
2022/04/08 12:34:14;;;;;;;7.37;1.80;;;;;;;11.08;59.70;97127.20;2243987;79;20997;-61
2022/04/08 12:37:16;;;;;;;4.33;1.65;;;;;;;11.40;60.09;97119.50;2240584;79;21494;-61
2022/04/08 12:40:17;;;;;;;10.20;1.90;;;;;;;11.90;54.34;97102.66;2232595;79;20971;-60
2022/04/08 12:43:19;;;;;;;8.95;2.08;;;;;;;12.17;55.03;97108.10;2230280;79;20979;-60
2022/04/08 12:46:20;;;;;;;6.83;2.10;;;;;;;12.37;49.44;97093.06;2236764;79;21040;-61
2022/04/08 12:49:21;;;;;;;8.50;1.92;;;;;;;12.57;52.92;97102.97;2224003;79;21031;-61
2022/04/08 12:52:23;;;;;;;13.63;3.13;;;;;;;12.94;50.36;97075.72;2233864;79;21532;-60
2022/04/08 12:55:24;;;;;;;14.80;2.33;;;;;;;13.27;49.16;97075.98;2240680;79;21054;-61
2022/04/08 12:58:27;;;;;;;8.80;2.13;;;;;;;13.15;47.08;97101.23;2241260;79;21452;-61
2022/04/08 13:01:29;;;;;;;10.53;2.10;;;;;;;12.80;48.26;97064.75;2228756;79;21019;-60
2022/04/08 13:04:31;;;;;;;11.85;2.37;;;;;;;12.91;46.52;97087.36;2231333;79;20979;-61
2022/04/08 13:07:32;;;;;;;11.83;2.60;;;;;;;13.20;47.69;97059.14;2236955;79;21033;-61
2022/04/08 13:10:34;;;;;;;11.85;2.47;;;;;;;12.91;47.01;97058.41;2244961;79;21019;-62
2022/04/08 13:13:35;;;;;;;9.50;2.23;;;;;;;13.10;48.28;97058.76;2228779;79;21139;-61
2022/04/08 13:16:37;;;;;;;7.90;1.87;;;;;;;13.50;43.79;97069.75;2285573;77;21471;-61
2022/04/08 13:19:39;;;;;;;10.50;1.87;;;;;;;13.70;43.02;97042.70;2284440;78;20996;-61
2022/04/08 13:22:41;;;;;;;9.07;1.87;;;;;;;14.08;43.92;97025.23;2277561;77;21506;-61
2022/04/08 13:25:42;;;;;;;11.23;2.13;;;;;;;13.92;42.48;97037.39;2243552;78;21059;-61
2022/04/08 13:28:44;;;;;;;7.40;1.90;;;;;;;13.63;40.00;97032.45;2280444;78;21089;-61
2022/04/08 13:31:45;;;;;;;11.43;2.20;;;;;;;13.76;40.29;97037.30;2241832;79;21060;-61
2022/04/08 13:34:47;;;;;;;9.40;2.40;;;;;;;13.84;39.63;97028.12;2237893;78;21044;-61
2022/04/08 13:37:48;;;;;;;13.70;2.70;;;;;;;14.10;40.40;97035.14;2232418;79;21083;-61
2022/04/08 13:40:50;;;;;;;8.87;2.07;;;;;;;14.31;38.94;97014.44;2248801;79;21048;-61
2022/04/08 13:43:52;;;;;;;9.55;2.60;;;;;;;14.37;38.30;97023.52;2212991;79;21083;-61
2022/04/08 13:46:53;;;;;;;10.67;2.60;;;;;;;14.19;40.59;97002.05;2211722;79;21043;-61
2022/04/08 13:49:55;;;;;;;11.80;2.27;;;;;;;14.62;39.18;96991.92;2220735;79;21116;-61
2022/04/08 13:52:57;;;;;;;9.98;2.25;;;;;;;14.78;36.75;97023.59;2239649;79;21111;-61
2022/04/08 13:55:58;;;;;;;9.93;2.27;;;;;;;14.62;36.07;97015.67;2223625;79;21079;-61
2022/04/08 13:59:00;;;;;;;12.73;2.08;;;;;;;14.63;36.30;96986.48;2226267;79;21100;-60
2022/04/08 14:02:02;;;;;;;5.73;1.83;;;;;;;14.77;35.41;96978.41;2238962;79;21570;-60
2022/04/08 14:05:04;;;;;;;6.85;1.27;;;;;;;14.72;35.03;97001.34;2243060;79;21067;-60
2022/04/08 14:08:05;;;;;;;11.60;2.43;;;;;;;14.56;34.28;97013.97;2236238;78;21494;-60